Latest Coastal Weather Observations for Marion Reef

IDQ60701

Issued at 9:21 pm EST Thursday 17 October 2019 (issued every 10 minutes, with the page automatically refreshed every 10 minutes)

About coastal observations | Map of coastal stations | Coastal observations for QLD | Marine services | Other Formats
Station Details ID: 200704 Name: MARION REEF Lat: -19.10 Lon: 152.39 Height: 2.0 m
Data from the previous 72 hours. | See also: Recent months for locations in Queensland
Date/Time
EST
Wind Sea
Height
m
Swell Vis
km
Cloud Weather Temp
°C
Press
hPa
Rain since
9am
mm
Dir  Spd
kts
Gust
kts
Height
m
Period
s
Dir
17/09:00pm NNE 7 8 - - - - - - - 24.4 1017.5 -
17/08:30pm NNE 7 8 - - - - - - - 24.3 1017.3 -
17/08:00pm NNE 6 7 - - - - - - - 24.3 1017.1 -
17/07:30pm ENE 6 8 - - - - - - - 24.3 1017.0 -
17/07:00pm ENE 7 8 - - - - - - - 24.4 1016.6 -
17/06:30pm ENE 7 9 - - - - - - - 24.3 1016.3 -
17/06:00pm ENE 8 10 - - - - - - - 24.4 1016.0 -
17/05:30pm ENE 9 11 - - - - - - - 24.4 1015.7 -
17/05:00pm ENE 10 12 - - - - - - - 24.5 1015.4 -
17/04:30pm ENE 10 12 - - - - - - - 24.7 1015.2 -
17/04:00pm ENE 9 11 - - - - - - - 24.7 1015.2 -
17/03:30pm ENE 9 11 - - - - - - - 24.8 1015.4 -
17/03:00pm ENE 9 12 - - - - - - - 24.7 1015.5 -
17/02:30pm E 7 9 - - - - - - - 24.8 1015.9 -
17/02:00pm E 6 8 - - - - - - - 24.9 1016.2 -
17/01:30pm E 7 8 - - - - - - - 24.9 1016.5 -
17/01:00pm E 6 9 - - - - - - - 24.9 1017.0 -
17/12:30pm ENE 9 11 - - - - - - - 24.6 1017.2 -
17/12:00pm ENE 9 11 - - - - - - - 24.7 1017.6 -
17/11:30am ENE 10 12 - - - - - - - 24.9 1017.7 -
17/11:00am ENE 12 14 - - - - - - - 24.6 1017.9 -
17/10:30am ENE 14 16 - - - - - - - 24.7 1017.6 -
17/10:00am ENE 14 17 - - - - - - - 24.7 1017.8 -
17/09:30am ENE 16 18 - - - - - - - 24.4 1017.8 -
17/09:00am ENE 16 19 - - - - - - - 24.3 1017.7 -
17/08:30am ENE 16 19 - - - - - - - 24.4 1017.7 -
17/08:00am ENE 17 20 - - - - - - - 24.1 1017.4 -
17/07:30am ENE 17 20 - - - - - - - 24.3 1017.1 -
17/07:00am ENE 17 20 - - - - - - - 24.0 1016.9 -
17/06:30am ENE 19 22 - - - - - - - 24.1 1016.5 -
17/06:00am ENE 16 19 - - - - - - - 24.3 1016.1 -
17/05:30am ENE 18 22 - - - - - - - 24.0 1015.7 -
17/05:00am ENE 19 22 - - - - - - - 23.9 1015.0 -
17/04:30am ENE 18 22 - - - - - - - 23.9 1014.8 -
17/04:00am ENE 18 20 - - - - - - - 23.9 1014.5 -
17/03:30am ENE 17 19 - - - - - - - 24.0 1014.6 -
17/03:00am ENE 17 19 - - - - - - - 23.8 1014.6 -
17/02:30am ENE 15 17 - - - - - - - 23.9 1014.8 -
17/02:00am ENE 15 17 - - - - - - - 24.2 1014.9 -
17/01:30am ENE 15 17 - - - - - - - 23.9 1015.2 -
17/01:00am ENE 13 15 - - - - - - - 24.0 1015.9 -
17/12:30am ENE 12 14 - - - - - - - 24.1 1016.4 -
17/12:00am ENE 12 14 - - - - - - - 24.1 1016.7 -
 
Date/Time
EST
Wind Sea
Height
m
Swell Vis
km
Cloud Weather Temp
°C
Press
hPa
Rain since
9am
mm
Dir  Spd
kts
Gust
kts
Height
m
Period
s
Dir
16/11:30pm ENE 13 14 - - - - - - - 24.2 1016.6 -
16/11:00pm ENE 12 15 - - - - - - - 24.1 1016.8 -
16/10:30pm ENE 13 15 - - - - - - - 24.2 1017.1 -
16/10:00pm ENE 12 13 - - - - - - - 24.2 1017.3 -
16/09:30pm E 11 13 - - - - - - - 24.3 1017.4 -
16/09:00pm E 11 13 - - - - - - - 24.3 1017.5 -
16/08:30pm E 12 14 - - - - - - - 24.5 1017.0 -
16/08:00pm E 9 11 - - - - - - - 24.3 1016.9 -
16/07:30pm E 10 11 - - - - - - - 24.4 1016.5 -
16/07:00pm E 9 10 - - - - - - - 24.4 1016.3 -
16/06:30pm E 9 11 - - - - - - - 24.4 1016.2 -
16/06:00pm E 7 9 - - - - - - - 24.5 1016.1 -
16/05:30pm E 7 9 - - - - - - - 24.6 1015.6 -
16/05:00pm ESE 6 7 - - - - - - - 24.9 1015.4 -
16/04:30pm ENE 8 8 - - - - - - - 24.8 1015.0 -
16/04:00pm ENE 7 9 - - - - - - - 24.9 1014.9 -
16/03:30pm ENE 7 8 - - - - - - - 25.4 1015.1 -
16/03:00pm ENE 6 8 - - - - - - - 25.0 1015.2 -
16/02:30pm ENE 9 11 - - - - - - - 24.8 1015.2 -
16/02:00pm NE 9 11 - - - - - - - 25.5 1015.4 -
16/01:30pm ENE 11 13 - - - - - - - 25.0 1015.7 -
16/01:00pm ENE 10 12 - - - - - - - 25.0 1015.9 -
16/12:30pm NE 10 11 - - - - - - - 25.5 1016.2 -
16/12:00pm NE 11 12 - - - - - - - 25.6 1016.5 -
16/11:30am NE 9 12 - - - - - - - 25.8 1016.7 -
16/11:00am NE 12 15 - - - - - - - 25.3 1016.8 -
16/10:30am NE 12 14 - - - - - - - 25.1 1016.9 -
16/10:00am NE 13 15 - - - - - - - 25.1 1016.9 -
16/09:30am NE 14 16 - - - - - - - 25.1 1017.1 -
16/09:00am NE 14 16 - - - - - - - 24.8 1016.9 -
16/08:30am NE 16 19 - - - - - - - 25.1 1016.8 -
16/08:00am NE 17 19 - - - - - - - 24.8 1016.3 -
16/07:30am NE 17 20 - - - - - - - 24.3 1016.1 -
16/07:00am NE 16 18 - - - - - - - 24.1 1015.7 -
16/06:30am ENE 18 21 - - - - - - - 24.0 1015.4 -
16/06:00am NE 16 19 - - - - - - - 24.2 1015.0 -
16/05:30am NE 17 20 - - - - - - - 24.0 1014.8 -
16/05:00am NE 16 19 - - - - - - - 24.0 1014.7 -
16/04:30am NE 19 22 - - - - - - - 23.9 1014.3 -
16/04:00am NE 18 21 - - - - - - - 24.0 1014.1 -
16/03:30am NE 17 20 - - - - - - - 23.6 1013.8 -
16/03:00am NE 16 18 - - - - - - - 23.8 1013.5 -
16/02:30am ENE 14 16 - - - - - - - 23.6 1013.7 -
16/02:00am ENE 13 15 - - - - - - - 24.1 1013.8 -
16/01:30am ENE 16 19 - - - - - - - 24.0 1013.8 -
16/01:00am ENE 14 17 - - - - - - - 24.1 1014.1 -
16/12:30am NE 14 17 - - - - - - - 23.8 1014.3 -
16/12:00am ENE 12 14 - - - - - - - 23.9 1014.7 -
 
Date/Time
EST
Wind Sea
Height
m
Swell Vis
km
Cloud Weather Temp
°C
Press
hPa
Rain since
9am
mm
Dir  Spd
kts
Gust
kts
Height
m
Period
s
Dir
15/11:30pm E 9 11 - - - - - - - 23.9 1015.1 -
15/11:00pm E 10 13 - - - - - - - 23.9 1015.4 -
15/10:30pm E 10 13 - - - - - - - 23.7 1015.3 -
15/10:00pm E 9 11 - - - - - - - 24.1 1015.3 -
15/09:30pm E 9 11 - - - - - - - 23.7 1015.0 -
15/09:00pm E 9 11 - - - - - - - 24.0 1014.9 -
15/08:30pm ENE 8 9 - - - - - - - 23.8 1014.5 -
15/08:00pm ENE 8 10 - - - - - - - 23.9 1014.1 -
15/07:30pm E 6 7 - - - - - - - 23.8 1014.0 -
15/07:00pm E 6 7 - - - - - - - 23.7 1013.8 -
15/06:30pm SSE 5 6 - - - - - - - 23.8 1013.8 -
15/06:00pm SSE 4 6 - - - - - - - 23.8 1013.6 -
15/05:30pm S 3 4 - - - - - - - 24.2 1013.4 -
15/05:00pm SSW 1 5 - - - - - - - 24.5 1013.1 -
15/04:30pm E 5 6 - - - - - - - 24.3 1013.0 -
15/04:00pm ENE 5 7 - - - - - - - 25.0 1012.8 -
15/03:30pm E 4 6 - - - - - - - 24.3 1012.9 -
15/03:00pm E 5 6 - - - - - - - 24.5 1013.2 -
15/02:30pm ESE 5 7 - - - - - - - 24.4 1013.4 -
15/02:00pm ESE 5 7 - - - - - - - 24.2 1013.9 -
15/01:30pm E 6 8 - - - - - - - 24.2 1014.2 -
15/01:00pm ESE 5 7 - - - - - - - 24.4 1014.5 -
15/12:30pm SE 5 6 - - - - - - - 24.4 1015.0 -
15/12:00pm SSE 4 6 - - - - - - - 24.6 1015.3 -
15/11:30am SE 4 7 - - - - - - - 24.9 1015.5 -
15/11:00am ESE 5 6 - - - - - - - 25.2 1015.9 -
15/10:30am NE 7 8 - - - - - - - 25.4 1016.0 -
15/10:00am NE 9 11 - - - - - - - 24.6 1016.0 -
15/09:30am NE 9 12 - - - - - - - 24.5 1016.0 -
15/09:00am ENE 9 11 - - - - - - - 24.3 1016.1 -
15/08:30am NE 10 12 - - - - - - - 24.0 1016.3 -
15/08:00am NE 10 12 - - - - - - - 24.3 1016.2 -
15/07:30am ENE 10 12 - - - - - - - 23.8 1016.3 -
15/07:00am ENE 11 13 - - - - - - - 23.7 1016.0 -
15/06:30am ENE 10 13 - - - - - - - 23.4 1015.7 -
15/06:00am ENE 10 13 - - - - - - - 23.3 1015.7 -
15/05:30am ENE 10 11 - - - - - - - 23.0 1015.6 -
15/05:00am E 9 13 - - - - - - - 22.9 1015.6 -
15/04:30am E 10 14 - - - - - - - 23.0 1015.5 -
15/04:00am E 10 11 - - - - - - - 23.2 1015.4 -
15/03:30am ESE 10 13 - - - - - - - 23.0 1015.5 -
15/03:00am ESE 10 12 - - - - - - - 23.0 1015.6 -
15/02:30am ESE 9 11 - - - - - - - 23.1 1015.7 -
15/02:00am ESE 10 13 - - - - - - - 23.1 1015.9 -
15/01:30am SE 10 13 - - - - - - - 23.1 1016.2 -
15/01:00am ESE 10 13 - - - - - - - 23.1 1016.5 -
15/12:30am ESE 11 13 - - - - - - - 23.2 1016.6 -
15/12:00am ESE 11 13 - - - - - - - 23.5 1016.9 -
 
Date/Time
EST
Wind Sea
Height
m
Swell Vis
km
Cloud Weather Temp
°C
Press
hPa
Rain since
9am
mm
Dir  Spd
kts
Gust
kts
Height
m
Period
s
Dir
14/11:30pm ESE 12 14 - - - - - - - 23.1 1017.1 -
14/11:00pm SE 12 14 - - - - - - - 23.2 1017.2 -
14/10:30pm SE 13 15 - - - - - - - 23.1 1017.3 -
14/10:00pm ESE 12 15 - - - - - - - 23.3 1017.2 -
14/09:30pm ESE 13 15 - - - - - - - 23.3 1017.1 -

Other formats

Comma delimited format used in spreadsheet applications
http://www.bom.gov.au/fwo/IDQ60701/IDQ60701.94298.axf

JavaScript Object Notation format (JSON) in row-major order
http://www.bom.gov.au/fwo/IDQ60701/IDQ60701.94298.json

Data quality

Most of these data are generated automatically and are frequently updated. Quality checks on data are not normally performed. It is possible for incorrect values to appear. Refer to information at About Latest Weather Observations and please check the disclaimer before using these data.